Latest Weather Observations for Swan Hill

IDN60801

Issued at 9:02 am EDT Friday 27 March 2015 (issued every 30 minutes, with the page automatically refreshed every 10 minutes)

About weather observations | Map of weather stations | Latest weather observations for NSW | Other Formats
Station Details ID: 077094 Name: SWAN HILL AERODROME Lat: -35.38 Lon: 143.54 Height: 71.0 m
Data from the previous 72 hours. | See also: Recent months at Swan Hill
Date/Time
EDT
Temp
°C
App
Temp
°C
Dew
Point
Rel
Hum
%
Delta-T
°C
Wind Press
QNH
hPa
Press
MSL
hPa
Rain
since 9 am
mm
Dir
 
Spd
km/h
Gust
km/h
Spd
kts
Gust
kts
27/08:30am 9.7 5.2 7.0 83 1.3 WSW 20 26 11 14 1026.0 1025.8 0.0
27/08:00am 8.7 4.7 6.7 87 0.9 W 17 20 9 11 1025.9 1025.7 0.0
27/07:30am 8.3 4.9 6.1 86 1.0 W 13 17 7 9 1025.6 1025.4 0.0
27/07:00am 8.9 4.9 6.5 85 1.1 WSW 17 20 9 11 1025.1 1024.9 0.0
27/06:30am 9.0 4.9 6.4 84 1.2 WSW 17 22 9 12 1024.8 1024.6 0.0
27/06:00am 9.4 5.0 6.5 82 1.3 WSW 19 24 10 13 1024.5 1024.3 0.0
27/05:30am 9.4 5.0 6.5 82 1.4 WSW 19 22 10 12 1024.2 1024.0 0.0
27/05:00am 9.2 5.9 6.3 82 1.3 WSW 13 17 7 9 1024.2 1024.0 0.0
27/04:30am 9.5 5.4 6.2 80 1.5 W 17 20 9 11 1024.2 1024.0 0.0
27/04:00am 9.6 5.1 6.1 79 1.6 W 19 22 10 12 1024.3 1024.1 0.0
27/03:30am 9.7 5.2 5.9 77 1.8 W 19 26 10 14 1024.2 1024.0 0.0
27/03:00am 10.3 5.2 6.1 75 1.9 W 22 28 12 15 1024.5 1024.3 0.0
27/02:30am 10.6 5.1 6.0 73 2.1 WSW 24 28 13 15 1024.6 1024.4 0.0
27/02:00am 10.6 5.4 5.6 71 2.3 W 22 28 12 15 1024.7 1024.5 0.0
27/01:30am 11.0 5.4 5.5 69 2.5 W 24 30 13 16 1024.6 1024.4 0.0
27/01:00am 11.5 5.5 5.4 66 2.8 WSW 26 32 14 17 1024.6 1024.4 0.0
27/12:30am 11.7 5.6 4.7 62 3.2 WSW 26 32 14 17 1024.6 1024.4 0.0
27/12:00am 11.8 6.4 4.5 61 3.3 W 22 26 12 14 1024.9 1024.7 0.0
 
Date/Time
EDT
Temp
°C
App
Temp
°C
Dew
Point
Rel
Hum
%
Delta-T
°C
Wind Press
QNH
hPa
Press
MSL
hPa
Rain
since 9 am
mm
Dir
 
Spd
km/h
Gust
km/h
Spd
kts
Gust
kts
26/11:30pm 12.3 6.9 4.3 58 3.6 W 22 28 12 15 1025.0 1024.8 0.0
26/11:00pm 12.7 7.2 3.9 55 4.0 WSW 22 28 12 15 1024.8 1024.6 0.0
26/10:30pm 13.4 7.0 3.2 50 4.6 WSW 26 37 14 20 1024.7 1024.5 0.0
26/10:00pm 13.7 7.3 3.2 49 4.7 WSW 26 35 14 19 1024.6 1024.4 0.0
26/09:30pm 14.3 6.7 2.9 46 5.1 WSW 32 43 17 23 1024.2 1024.0 0.0
26/09:00pm 14.6 9.0 1.5 41 5.7 WSW 20 32 11 17 1023.9 1023.7 0.0
26/08:30pm 15.1 8.4 1.6 40 5.9 WSW 26 35 14 19 1023.6 1023.4 0.0
26/08:00pm 15.6 8.2 2.1 40 6.0 WSW 30 39 16 21 1023.3 1023.1 0.0
26/07:30pm 16.3 7.5 1.6 37 6.5 WSW 37 52 20 28 1023.0 1022.8 0.0
26/07:00pm 17.1 8.4 1.9 36 6.8 WSW 37 50 20 27 1022.5 1022.3 0.0
26/06:30pm 17.9 9.4 1.0 32 7.5 WSW 35 52 19 28 1022.1 1021.9 0.0
26/06:00pm 18.8 9.0 -0.1 28 8.2 WSW 41 54 22 29 1021.7 1021.5 0.0
26/05:30pm 19.6 10.6 0.1 27 8.6 WSW 37 54 20 29 1021.5 1021.3 0.0
26/05:10pm 19.7 11.4 -0.3 26 8.8 W 33 52 18 28 1021.4 1021.2 0.0
26/05:00pm 19.2 8.7 -1.3 25 8.8 W 44 56 24 30 1021.4 1021.2 0.0
26/04:30pm 19.7 9.4 -0.9 25 8.9 W 43 54 23 29 1021.2 1021.0 0.0
26/04:00pm 19.7 10.6 -0.3 26 8.8 W 37 50 20 27 1021.2 1021.0 0.0
26/03:32pm 19.9 10.4 -0.7 25 9.0 W 39 57 21 31 1021.2 1021.0 0.0
26/03:30pm 19.9 10.5 -0.1 26 8.8 W 39 56 21 30 1021.3 1021.1 0.0
26/03:00pm 19.3 10.2 -0.7 26 8.7 W 37 50 20 27 1021.4 1021.2 0.0
26/02:35pm 18.9 9.5 0.0 28 8.3 WSW 39 65 21 35 1021.7 1021.5 0.0
26/02:30pm 18.7 9.7 0.3 29 8.1 WSW 37 50 20 27 1021.7 1021.5 0.0
26/02:00pm 17.2 8.7 0.8 33 7.2 WSW 35 54 19 29 1022.1 1021.9 0.0
26/01:31pm 18.6 10.0 0.2 29 8.1 WSW 35 65 19 35 1022.4 1022.2 0.0
26/01:30pm 18.0 9.4 0.2 30 7.8 WSW 35 52 19 28 1022.3 1022.1 0.0
26/01:11pm 18.2 10.0 0.4 30 7.8 WSW 33 52 18 28 1022.6 1022.4 0.0
26/01:00pm 17.9 10.0 1.0 32 7.5 W 32 44 17 24 1022.6 1022.4 0.0
26/12:30pm 16.4 8.2 0.5 34 6.9 WSW 33 46 18 25 1023.0 1022.8 0.0
26/12:00pm 16.4 9.2 0.9 35 6.7 WSW 28 43 15 23 1023.2 1023.0 0.0
26/11:43am 15.6 7.7 1.0 37 6.4 WSW 32 50 17 27 1023.2 1023.0 0.0
26/11:30am 15.1 8.1 2.0 41 5.8 WSW 28 39 15 21 1023.3 1023.1 0.0
26/11:00am 14.9 8.1 3.1 45 5.3 WSW 28 41 15 22 1023.2 1023.0 0.0
26/10:30am 14.5 6.8 3.6 48 5.0 WSW 33 44 18 24 1022.9 1022.7 0.0
26/10:00am 13.6 6.7 4.5 54 4.2 W 30 39 16 21 1022.6 1022.4 0.0
26/09:30am 12.4 5.9 4.9 60 3.5 W 28 39 15 21 1022.4 1022.2 0.0
26/09:00am 10.9 5.8 5.9 71 2.3 WNW 22 28 12 15 1022.1 1021.9 -
26/08:30am 9.4 5.2 5.9 79 1.6 WNW 17 20 9 11 1021.7 1021.5 -
26/08:00am 8.1 4.2 5.4 83 1.2 WNW 15 17 8 9 1021.1 1020.9 -
26/07:30am 8.4 4.2 5.5 82 1.3 WNW 17 20 9 11 1020.8 1020.6 -
26/07:00am 8.5 4.6 5.4 81 1.4 WNW 15 19 8 10 1020.5 1020.3 -
26/06:30am 9.1 4.9 5.8 80 1.5 W 17 20 9 11 1020.2 1020.0 -
26/06:00am 9.5 5.4 6.0 79 1.6 W 17 20 9 11 1019.9 1019.7 -
26/05:30am 10.2 5.6 6.4 77 1.8 W 20 22 11 12 1019.7 1019.5 -
26/05:00am 10.9 5.9 6.5 74 2.1 W 22 30 12 16 1019.5 1019.3 -
26/04:30am 11.8 6.8 6.5 70 2.5 W 22 28 12 15 1019.3 1019.0 -
26/04:00am 12.1 7.6 5.9 66 2.9 WSW 19 22 10 12 1019.0 1018.7 -
26/03:30am 12.3 7.7 5.7 64 3.1 WSW 19 24 10 13 1018.8 1018.5 -
26/03:00am 12.4 6.8 5.6 63 3.2 WSW 24 32 13 17 1018.9 1018.6 -
26/02:30am 12.2 7.0 5.6 64 3.1 WSW 22 33 12 18 1018.7 1018.4 -
26/02:00am 12.2 6.7 6.0 66 2.9 SW 24 32 13 17 1018.6 1018.3 -
26/01:30am 12.2 6.8 6.3 67 2.8 SW 24 35 13 19 1018.6 1018.3 -
26/01:11am 12.3 6.2 6.6 68 2.7 SW 28 46 15 25 1018.4 1018.1 -
26/01:00am 12.5 - 7.0 69 2.6 - - - - - 1018.3 1018.0 -
26/12:30am 15.1 10.2 2.0 41 5.8 NNW 17 22 9 12 1016.8 - -
26/12:00am 14.0 9.5 2.0 44 5.3 NNW 15 17 8 9 1017.1 1016.9 -
 
Date/Time
EDT
Temp
°C
App
Temp
°C
Dew
Point
Rel
Hum
%
Delta-T
°C
Wind Press
QNH
hPa
Press
MSL
hPa
Rain
since 9 am
mm
Dir
 
Spd
km/h
Gust
km/h
Spd
kts
Gust
kts
25/11:30pm 11.8 7.5 1.2 48 4.5 NNW 13 15 7 8 1017.2 1017.0 -
25/11:00pm 12.2 7.6 1.5 48 4.6 NNW 15 17 8 9 1017.1 1016.9 -
25/10:30pm 12.6 8.1 2.2 49 4.5 NNW 15 17 8 9 1017.1 1016.9 -
25/10:00pm 12.4 8.1 1.1 46 4.8 NW 13 17 7 9 1017.0 1016.8 -
25/09:30pm 13.2 9.0 1.5 45 5.0 NW 13 15 7 8 1016.9 1016.7 -
25/09:00pm 13.9 9.7 1.5 43 5.4 NW 13 15 7 8 1016.9 1016.7 -
25/08:30pm 14.7 10.4 1.3 40 5.8 NW 13 15 7 8 1016.6 1016.4 -
25/08:00pm 16.4 11.6 0.1 33 7.0 WNW 15 17 8 9 1016.5 1016.3 -
25/07:30pm 18.1 12.4 0.3 30 7.8 NW 20 26 11 14 1016.2 1016.0 -
25/07:00pm 18.8 13.3 0.4 29 8.1 WNW 19 26 10 14 1016.3 1016.1 -
25/06:30pm 18.6 12.5 0.2 29 8.1 WNW 22 33 12 18 1016.1 1015.9 -
25/06:00pm 19.7 12.4 0.2 27 8.6 WNW 28 41 15 22 1015.8 1015.6 -
25/05:30pm 19.4 13.3 0.4 28 8.4 W 22 35 12 19 1015.7 1015.5 -
25/05:00pm 19.4 13.3 0.4 28 8.4 W 22 35 12 19 1015.5 1015.3 -
25/04:30pm 19.9 12.7 0.4 27 8.7 WSW 28 43 15 23 1015.8 1015.6 -
25/04:00pm 20.6 15.8 0.4 26 9.1 SE 15 54 8 29 1016.1 - -
25/03:30pm 20.7 14.2 0.0 25 9.2 W 24 41 13 22 1016.4 1016.2 -
25/03:00pm 19.6 14.4 0.1 27 8.6 W 17 28 9 15 1016.3 1016.1 0.0
25/02:30pm 19.6 13.8 -0.4 26 8.8 W 20 33 11 18 1016.7 1016.5 -
25/02:00pm 19.0 14.3 0.6 29 8.2 W 15 24 8 13 1017.0 1016.8 -
25/01:30pm 18.2 13.9 1.3 32 7.6 W 13 22 7 12 1017.4 1017.2 -
25/01:00pm 17.7 13.1 1.7 34 7.2 W 15 26 8 14 1018.3 1018.0 -
25/12:30pm 17.6 12.3 2.0 35 7.1 WSW 19 30 10 16 1019.0 1018.7 -
25/12:00pm 17.0 12.6 2.6 38 6.6 W 15 24 8 13 1018.9 - -
25/11:30am 16.2 12.2 2.9 41 6.1 SW 13 22 7 12 1019.1 - -
25/11:00am 15.8 12.3 3.3 43 5.7 SSW 11 19 6 10 1019.5 1019.3 0.0
25/10:30am 15.1 11.6 3.3 45 5.4 S 11 15 6 8 1019.2 1018.9 0.0
25/09:00am 11.5 6.7 2.5 54 3.9 SW 17 28 9 15 1019.6 1019.4 0.0
25/08:30am 8.5 3.9 1.6 62 2.8 SW 15 20 8 11 1019.7 1019.5 -
25/08:00am 8.0 4.6 1.6 64 2.6 SSW 9 11 5 6 1018.9 1018.6 -
25/07:30am 7.8 4.4 1.6 65 2.5 SSW 9 13 5 7 1018.5 1018.2 -
25/07:00am 7.7 4.2 1.5 65 2.5 SSW 9 13 5 7 1018.8 1018.5 -
25/06:30am 7.2 3.3 1.3 66 2.4 SW 11 13 6 7 1018.9 1018.6 -
25/06:00am 8.0 4.2 1.6 64 2.6 SW 11 15 6 8 1018.8 1018.5 -
25/05:30am 8.2 4.0 1.8 64 2.6 SW 13 17 7 9 1018.4 1018.1 -
25/05:00am 8.4 4.6 2.0 64 2.7 SSW 11 15 6 8 1018.3 1018.0 -
25/04:30am 8.5 4.8 2.1 64 2.7 SSW 11 17 6 9 1017.8 1017.6 -
25/04:00am 8.9 5.1 2.0 62 2.9 SSW 11 15 6 8 1017.7 1017.5 -
25/03:30am 9.5 5.4 2.1 60 3.1 SSW 13 20 7 11 1018.6 1018.3 -
25/03:00am 9.7 5.2 2.3 60 3.1 SW 15 22 8 12 1019.0 1018.7 0.0
25/02:30am 9.9 5.4 2.3 59 3.2 SSW 15 22 8 12 1018.7 1018.4 -
25/02:00am 9.9 5.8 2.3 59 3.2 S 13 20 7 11 1018.7 1018.4 -
25/01:30am 10.3 6.2 2.4 58 3.4 SSW 13 17 7 9 1019.0 1018.7 -
25/01:00am 10.6 6.5 2.4 57 3.5 S 13 20 7 11 1019.3 1019.0 -
25/12:30am 11.0 6.9 2.3 55 3.7 S 13 19 7 10 1019.6 1019.4 -
25/12:00am 11.4 6.9 2.4 54 3.9 S 15 20 8 11 1019.6 1019.4 -
 
Date/Time
EDT
Temp
°C
App
Temp
°C
Dew
Point
Rel
Hum
%
Delta-T
°C
Wind Press
QNH
hPa
Press
MSL
hPa
Rain
since 9 am
mm
Dir
 
Spd
km/h
Gust
km/h
Spd
kts
Gust
kts
24/11:30pm 11.9 7.1 2.4 52 4.1 SSW 17 26 9 14 1019.7 1019.5 -
24/11:00pm 12.4 7.5 2.3 50 4.4 SSW 17 26 9 14 1019.9 1019.7 -
24/10:30pm 13.1 7.9 2.6 49 4.6 SSW 19 28 10 15 1020.0 1019.8 -
24/10:00pm 13.7 8.5 2.3 46 5.0 SSW 19 26 10 14 1020.0 1019.8 -
24/09:30pm 14.3 9.3 1.6 42 5.5 SSW 17 24 9 13 1019.8 1019.6 -
24/09:00pm 14.9 9.9 1.1 39 6.0 SSW 17 22 9 12 1019.5 1019.3 0.0
24/08:30pm 15.5 9.5 1.3 38 6.2 SW 22 32 12 17 1019.0 1018.7 -
24/08:00pm 16.0 10.1 1.7 38 6.3 SSW 22 32 12 17 1018.3 1018.0 -
24/07:30pm 16.8 10.2 2.0 37 6.6 SW 26 35 14 19 1017.7 1017.5 -
24/07:00pm 18.0 10.9 1.5 33 7.4 SSW 28 39 15 21 1017.3 1017.1 -
24/06:30pm 18.8 12.8 0.9 30 8.0 S 22 39 12 21 1017.2 1017.0 -
24/06:00pm 18.9 12.6 1.4 31 7.9 SSW 24 37 13 20 1017.0 1016.8 -
24/05:30pm 18.9 11.9 1.9 32 7.8 SSW 28 43 15 23 1016.9 1016.7 -
24/05:00pm 18.7 11.4 2.5 34 7.5 SSW 30 43 16 23 1016.9 1016.7 -
24/04:50pm 19.2 12.3 2.6 33 7.7 SSW 28 46 15 25 1017.0 1016.8 -
24/04:30pm 19.6 12.7 2.5 32 7.9 SSW 28 43 15 23 1016.9 1016.7 -
24/04:00pm 19.0 11.8 2.8 34 7.5 SW 30 48 16 26 1017.1 1016.9 -
24/03:59pm 19.5 12.3 3.2 34 7.7 SW 30 48 16 26 1017.2 1017.0 -
24/03:30pm 19.1 12.3 2.9 34 7.6 SSW 28 44 15 24 1017.0 1016.8 -
24/03:19pm 19.2 12.3 2.6 33 7.7 SW 28 50 15 27 1017.1 1016.9 -
24/03:00pm 18.9 12.4 2.7 34 7.5 SSW 26 39 14 21 1016.9 1016.7 0.0
24/02:30pm 19.8 12.9 2.6 32 8.0 SW 28 39 15 21 1017.1 1016.9 -
24/02:00pm 19.7 13.0 3.4 34 7.7 SW 28 43 15 23 1017.5 1017.3 -
24/01:30pm 18.7 11.5 2.9 35 7.3 SW 30 39 16 21 1017.5 1017.3 -
24/01:00pm 19.1 12.6 2.9 34 7.5 SW 26 39 14 21 1017.8 1017.6 -
24/12:30pm 18.4 12.0 3.1 36 7.1 SSW 26 39 14 21 1018.0 1017.8 -
24/12:00pm 17.9 12.7 3.8 39 6.6 S 20 33 11 18 1017.9 1017.7 -
24/11:30am 17.7 16.5 4.6 42 6.3 CALM 0 0 0 0 1018.1 - 0.0
24/11:00am 17.0 - 5.6 47 5.5 - - - - - 1018.3 1018.0 -
24/10:30am 16.5 - 6.1 50 5.1 - - - - - 1018.3 - -
24/10:00am 15.5 10.1 6.2 54 4.5 S 24 44 13 24 1018.2 1017.9 0.0
24/09:30am 15.0 9.8 7.1 59 3.9 S 24 37 13 20 1017.7 1017.5 0.0

Other Formats:

Comma delimited format used in spreadsheet applications
http://www.bom.gov.au/fwo/IDN60801/IDN60801.94843.axf

JavaScript Object Notation format (JSON) in row-major order
http://www.bom.gov.au/fwo/IDN60801/IDN60801.94843.json